Miranda, California
Current Conditions -  °F | °C
As of 2:15 PM on Saturday 20 Dec 2014 (Local Time) from KFOT Reporting Station
Overcast Overcast  
Wind Chill: 54°   Ceiling: 2700
Heat Index: 54°   Visibility: 2mi
Dew Point: 52°   Wind: 18mph
Humidity: 94%   Direction: 120°ESE
Pressure: 30.06"   Gusts: 23mph
Location:  40.23°N, 123.83°W
Report Text: KFOT 202215Z AUTO 12016G20KT 2SM OVC027 12/11 A3006 RMK AO1 P0006
Loading
Personal Weather Stations






























Interactive Weather Map New forecast layout! Learn more

10-Day Weather Forecast

Advertisements
Track Severe Weather on mobile